sensor_id;sensor_type;location;lat;lon;timestamp;temperature;humidity
65146;DHT22;51730;56.950;24.126;2022-11-15T00:00:57;5.00;99.90
65146;DHT22;51730;56.950;24.126;2022-11-15T00:03:26;4.90;99.90
65146;DHT22;51730;56.950;24.126;2022-11-15T00:05:53;4.80;99.90
65146;DHT22;51730;56.950;24.126;2022-11-15T00:08:20;5.00;99.90
65146;DHT22;51730;56.950;24.126;2022-11-15T00:10:55;4.90;99.90
65146;DHT22;51730;56.950;24.126;2022-11-15T00:13:22;4.80;99.90
65146;DHT22;51730;56.950;24.126;2022-11-15T00:15:49;4.90;99.90
65146;DHT22;51730;56.950;24.126;2022-11-15T00:18:16;4.90;99.90
65146;DHT22;51730;56.950;24.126;2022-11-15T00:20:43;4.90;99.90
65146;DHT22;51730;56.950;24.126;2022-11-15T00:23:11;5.00;99.90
65146;DHT22;51730;56.950;24.126;2022-11-15T00:25:37;4.80;99.90
65146;DHT22;51730;56.950;24.126;2022-11-15T00:28:04;4.90;99.90
65146;DHT22;51730;56.950;24.126;2022-11-15T00:30:31;4.90;99.90
65146;DHT22;51730;56.950;24.126;2022-11-15T00:33:05;4.90;99.90
65146;DHT22;51730;56.950;24.126;2022-11-15T00:35:33;5.00;99.90
65146;DHT22;51730;56.950;24.126;2022-11-15T00:38:01;5.00;99.90
65146;DHT22;51730;56.950;24.126;2022-11-15T00:40:29;5.00;99.90
65146;DHT22;51730;56.950;24.126;2022-11-15T00:42:56;5.00;99.90
65146;DHT22;51730;56.950;24.126;2022-11-15T00:45:23;4.90;99.90
65146;DHT22;51730;56.950;24.126;2022-11-15T00:47:50;5.00;99.90
65146;DHT22;51730;56.950;24.126;2022-11-15T00:50:17;4.90;99.90
65146;DHT22;51730;56.950;24.126;2022-11-15T00:52:45;4.90;99.90
65146;DHT22;51730;56.950;24.126;2022-11-15T00:55:16;4.90;99.90
65146;DHT22;51730;56.950;24.126;2022-11-15T00:57:43;5.00;99.90
65146;DHT22;51730;56.950;24.126;2022-11-15T01:00:11;5.00;99.90
65146;DHT22;51730;56.950;24.126;2022-11-15T01:02:38;5.00;99.90
65146;DHT22;51730;56.950;24.126;2022-11-15T01:05:06;5.00;99.90
65146;DHT22;51730;56.950;24.126;2022-11-15T01:07:33;5.00;99.90
65146;DHT22;51730;56.950;24.126;2022-11-15T01:10:00;5.00;99.90
65146;DHT22;51730;56.950;24.126;2022-11-15T01:12:27;5.00;99.90
65146;DHT22;51730;56.950;24.126;2022-11-15T01:14:54;5.00;99.90
65146;DHT22;51730;56.950;24.126;2022-11-15T01:17:21;5.00;99.90
65146;DHT22;51730;56.950;24.126;2022-11-15T01:19:48;5.00;99.90
65146;DHT22;51730;56.950;24.126;2022-11-15T01:22:15;5.00;99.90
65146;DHT22;51730;56.950;24.126;2022-11-15T01:24:42;5.00;99.90
65146;DHT22;51730;56.950;24.126;2022-11-15T01:27:09;5.00;99.90
65146;DHT22;51730;56.950;24.126;2022-11-15T01:29:36;5.00;99.90
65146;DHT22;51730;56.950;24.126;2022-11-15T01:32:03;5.00;99.90
65146;DHT22;51730;56.950;24.126;2022-11-15T01:34:29;5.00;99.90
65146;DHT22;51730;56.950;24.126;2022-11-15T01:36:56;5.00;99.90
65146;DHT22;51730;56.950;24.126;2022-11-15T01:39:23;5.10;99.90
65146;DHT22;51730;56.950;24.126;2022-11-15T01:41:50;5.10;99.90
65146;DHT22;51730;56.950;24.126;2022-11-15T01:44:51;5.10;99.90
65146;DHT22;51730;56.950;24.126;2022-11-15T01:47:23;5.00;99.90
65146;DHT22;51730;56.950;24.126;2022-11-15T01:50:09;5.10;99.90
65146;DHT22;51730;56.950;24.126;2022-11-15T01:52:37;5.20;99.90
65146;DHT22;51730;56.950;24.126;2022-11-15T01:55:20;5.20;99.90
65146;DHT22;51730;56.950;24.126;2022-11-15T01:57:48;5.20;99.90
65146;DHT22;51730;56.950;24.126;2022-11-15T02:00:17;5.10;99.90
65146;DHT22;51730;56.950;24.126;2022-11-15T02:02:44;5.20;99.90
65146;DHT22;51730;56.950;24.126;2022-11-15T02:05:11;5.20;99.90
65146;DHT22;51730;56.950;24.126;2022-11-15T02:07:38;5.20;99.90
65146;DHT22;51730;56.950;24.126;2022-11-15T02:10:14;5.20;99.90
65146;DHT22;51730;56.950;24.126;2022-11-15T02:12:41;5.20;99.90
65146;DHT22;51730;56.950;24.126;2022-11-15T02:15:09;5.20;99.90
65146;DHT22;51730;56.950;24.126;2022-11-15T02:28:37;5.20;99.90
65146;DHT22;51730;56.950;24.126;2022-11-15T02:34:11;5.20;99.90
65146;DHT22;51730;56.950;24.126;2022-11-15T02:41:57;5.20;99.90
65146;DHT22;51730;56.950;24.126;2022-11-15T02:44:37;5.10;99.90
65146;DHT22;51730;56.950;24.126;2022-11-15T02:47:08;5.10;99.90
65146;DHT22;51730;56.950;24.126;2022-11-15T02:49:47;5.10;99.90
65146;DHT22;51730;56.950;24.126;2022-11-15T02:52:16;5.20;99.90
65146;DHT22;51730;56.950;24.126;2022-11-15T02:55:02;5.20;99.90
65146;DHT22;51730;56.950;24.126;2022-11-15T02:57:41;5.20;99.90
65146;DHT22;51730;56.950;24.126;2022-11-15T03:00:18;5.20;99.90
65146;DHT22;51730;56.950;24.126;2022-11-15T03:11:33;5.10;99.90
65146;DHT22;51730;56.950;24.126;2022-11-15T03:14:21;5.10;99.90
65146;DHT22;51730;56.950;24.126;2022-11-15T03:17:05;5.20;99.90
65146;DHT22;51730;56.950;24.126;2022-11-15T03:19:39;5.20;99.90
65146;DHT22;51730;56.950;24.126;2022-11-15T03:22:11;5.10;99.90
65146;DHT22;51730;56.950;24.126;2022-11-15T03:24:38;5.00;99.90
65146;DHT22;51730;56.950;24.126;2022-11-15T03:27:06;5.00;99.90
65146;DHT22;51730;56.950;24.126;2022-11-15T03:29:41;5.10;99.90
65146;DHT22;51730;56.950;24.126;2022-11-15T03:32:22;5.10;99.90
65146;DHT22;51730;56.950;24.126;2022-11-15T03:34:57;5.00;99.90
65146;DHT22;51730;56.950;24.126;2022-11-15T03:38:17;5.00;99.90
65146;DHT22;51730;56.950;24.126;2022-11-15T03:40:17;5.00;99.90
65146;DHT22;51730;56.950;24.126;2022-11-15T03:45:45;5.10;99.90
65146;DHT22;51730;56.950;24.126;2022-11-15T03:48:21;5.10;99.90
65146;DHT22;51730;56.950;24.126;2022-11-15T03:50:49;5.10;99.90
65146;DHT22;51730;56.950;24.126;2022-11-15T03:53:16;5.10;99.90
65146;DHT22;51730;56.950;24.126;2022-11-15T03:55:43;5.20;99.90
65146;DHT22;51730;56.950;24.126;2022-11-15T03:58:10;5.20;99.90
65146;DHT22;51730;56.950;24.126;2022-11-15T04:00:37;5.20;99.90
65146;DHT22;51730;56.950;24.126;2022-11-15T04:03:04;5.20;99.90
65146;DHT22;51730;56.950;24.126;2022-11-15T04:05:31;5.20;99.90
65146;DHT22;51730;56.950;24.126;2022-11-15T04:07:58;5.20;99.90
65146;DHT22;51730;56.950;24.126;2022-11-15T04:10:24;5.00;99.90
65146;DHT22;51730;56.950;24.126;2022-11-15T04:12:51;5.10;99.90
65146;DHT22;51730;56.950;24.126;2022-11-15T04:15:20;5.10;99.90
65146;DHT22;51730;56.950;24.126;2022-11-15T04:17:50;5.10;99.90
65146;DHT22;51730;56.950;24.126;2022-11-15T04:23:07;5.20;99.90
65146;DHT22;51730;56.950;24.126;2022-11-15T04:25:54;5.20;99.90
65146;DHT22;51730;56.950;24.126;2022-11-15T04:28:21;5.20;99.90
65146;DHT22;51730;56.950;24.126;2022-11-15T04:30:49;5.20;99.90
65146;DHT22;51730;56.950;24.126;2022-11-15T04:33:16;5.30;99.90
65146;DHT22;51730;56.950;24.126;2022-11-15T04:35:43;5.30;99.90
65146;DHT22;51730;56.950;24.126;2022-11-15T04:38:10;5.30;99.90
65146;DHT22;51730;56.950;24.126;2022-11-15T04:40:37;5.30;99.90
65146;DHT22;51730;56.950;24.126;2022-11-15T04:43:04;5.40;99.90
65146;DHT22;51730;56.950;24.126;2022-11-15T04:45:31;5.40;99.90
65146;DHT22;51730;56.950;24.126;2022-11-15T04:47:58;5.30;99.90
65146;DHT22;51730;56.950;24.126;2022-11-15T04:50:25;5.40;99.90
65146;DHT22;51730;56.950;24.126;2022-11-15T04:52:53;5.40;99.90
65146;DHT22;51730;56.950;24.126;2022-11-15T04:55:20;5.50;99.90
65146;DHT22;51730;56.950;24.126;2022-11-15T04:57:48;5.40;99.90
65146;DHT22;51730;56.950;24.126;2022-11-15T05:00:23;5.40;99.90
65146;DHT22;51730;56.950;24.126;2022-11-15T05:02:50;5.40;99.90
65146;DHT22;51730;56.950;24.126;2022-11-15T05:05:36;5.40;99.90
65146;DHT22;51730;56.950;24.126;2022-11-15T05:08:03;5.40;99.90
65146;DHT22;51730;56.950;24.126;2022-11-15T05:10:31;5.40;99.90
65146;DHT22;51730;56.950;24.126;2022-11-15T05:12:57;5.40;99.90
65146;DHT22;51730;56.950;24.126;2022-11-15T05:15:24;5.50;99.90
65146;DHT22;51730;56.950;24.126;2022-11-15T05:17:56;5.50;99.90
65146;DHT22;51730;56.950;24.126;2022-11-15T05:20:23;5.50;99.90
65146;DHT22;51730;56.950;24.126;2022-11-15T05:22:50;5.50;99.90
65146;DHT22;51730;56.950;24.126;2022-11-15T05:25:17;5.50;99.90
65146;DHT22;51730;56.950;24.126;2022-11-15T05:27:44;5.50;99.90
65146;DHT22;51730;56.950;24.126;2022-11-15T05:30:11;5.40;99.90
65146;DHT22;51730;56.950;24.126;2022-11-15T05:32:38;5.50;99.90
65146;DHT22;51730;56.950;24.126;2022-11-15T05:35:07;5.50;99.90
65146;DHT22;51730;56.950;24.126;2022-11-15T05:37:35;5.50;99.90
65146;DHT22;51730;56.950;24.126;2022-11-15T05:40:02;5.50;99.90
65146;DHT22;51730;56.950;24.126;2022-11-15T05:42:29;5.50;99.90
65146;DHT22;51730;56.950;24.126;2022-11-15T05:44:57;5.50;99.90
65146;DHT22;51730;56.950;24.126;2022-11-15T05:47:27;5.50;99.90
65146;DHT22;51730;56.950;24.126;2022-11-15T05:49:55;5.50;99.90
65146;DHT22;51730;56.950;24.126;2022-11-15T05:52:27;5.50;99.90
65146;DHT22;51730;56.950;24.126;2022-11-15T05:54:56;5.50;99.90
65146;DHT22;51730;56.950;24.126;2022-11-15T05:57:24;5.50;99.90
65146;DHT22;51730;56.950;24.126;2022-11-15T05:59:51;5.50;99.90
65146;DHT22;51730;56.950;24.126;2022-11-15T06:02:18;5.50;99.90
65146;DHT22;51730;56.950;24.126;2022-11-15T06:04:45;5.60;99.90
65146;DHT22;51730;56.950;24.126;2022-11-15T06:07:12;5.60;99.90
65146;DHT22;51730;56.950;24.126;2022-11-15T06:09:39;5.70;99.90
65146;DHT22;51730;56.950;24.126;2022-11-15T06:12:06;5.60;99.90
65146;DHT22;51730;56.950;24.126;2022-11-15T06:14:33;5.60;99.90
65146;DHT22;51730;56.950;24.126;2022-11-15T06:17:00;5.50;99.90
65146;DHT22;51730;56.950;24.126;2022-11-15T06:19:27;5.50;99.90
65146;DHT22;51730;56.950;24.126;2022-11-15T06:21:53;5.60;99.90
65146;DHT22;51730;56.950;24.126;2022-11-15T06:24:20;5.60;99.90
65146;DHT22;51730;56.950;24.126;2022-11-15T06:26:47;5.70;99.90
65146;DHT22;51730;56.950;24.126;2022-11-15T06:29:14;5.60;99.90
65146;DHT22;51730;56.950;24.126;2022-11-15T06:31:41;5.70;99.90
65146;DHT22;51730;56.950;24.126;2022-11-15T06:34:08;5.60;99.90
65146;DHT22;51730;56.950;24.126;2022-11-15T06:36:35;5.70;99.90
65146;DHT22;51730;56.950;24.126;2022-11-15T06:39:04;5.70;99.90
65146;DHT22;51730;56.950;24.126;2022-11-15T06:41:34;5.70;99.90
65146;DHT22;51730;56.950;24.126;2022-11-15T06:44:02;5.70;99.90
65146;DHT22;51730;56.950;24.126;2022-11-15T06:46:29;5.80;99.90
65146;DHT22;51730;56.950;24.126;2022-11-15T06:48:56;5.70;99.90
65146;DHT22;51730;56.950;24.126;2022-11-15T06:51:23;5.70;99.90
65146;DHT22;51730;56.950;24.126;2022-11-15T06:53:49;5.70;99.90
65146;DHT22;51730;56.950;24.126;2022-11-15T06:56:16;5.80;99.90
65146;DHT22;51730;56.950;24.126;2022-11-15T06:58:43;5.80;99.90
65146;DHT22;51730;56.950;24.126;2022-11-15T07:01:12;5.80;99.90
65146;DHT22;51730;56.950;24.126;2022-11-15T07:03:40;5.80;99.90
65146;DHT22;51730;56.950;24.126;2022-11-15T07:06:08;5.80;99.90
65146;DHT22;51730;56.950;24.126;2022-11-15T07:08:36;5.80;99.90
65146;DHT22;51730;56.950;24.126;2022-11-15T07:11:06;5.80;99.90
65146;DHT22;51730;56.950;24.126;2022-11-15T07:13:33;5.80;99.90
65146;DHT22;51730;56.950;24.126;2022-11-15T07:16:04;5.90;99.90
65146;DHT22;51730;56.950;24.126;2022-11-15T07:18:37;5.90;99.90
65146;DHT22;51730;56.950;24.126;2022-11-15T07:21:07;6.00;99.90
65146;DHT22;51730;56.950;24.126;2022-11-15T07:23:39;6.00;99.90
65146;DHT22;51730;56.950;24.126;2022-11-15T07:26:07;5.90;99.90
65146;DHT22;51730;56.950;24.126;2022-11-15T07:28:35;6.00;99.90
65146;DHT22;51730;56.950;24.126;2022-11-15T07:31:07;6.00;99.90
65146;DHT22;51730;56.950;24.126;2022-11-15T07:33:35;6.10;99.90
65146;DHT22;51730;56.950;24.126;2022-11-15T07:36:04;6.10;99.90
65146;DHT22;51730;56.950;24.126;2022-11-15T07:38:32;6.00;99.90
65146;DHT22;51730;56.950;24.126;2022-11-15T07:41:06;6.00;99.90
65146;DHT22;51730;56.950;24.126;2022-11-15T07:43:33;6.00;99.90
65146;DHT22;51730;56.950;24.126;2022-11-15T07:46:05;5.90;99.90
65146;DHT22;51730;56.950;24.126;2022-11-15T07:48:37;6.00;99.90
65146;DHT22;51730;56.950;24.126;2022-11-15T07:51:14;6.00;99.90
65146;DHT22;51730;56.950;24.126;2022-11-15T07:53:42;6.10;99.90
65146;DHT22;51730;56.950;24.126;2022-11-15T07:56:10;6.00;99.90
65146;DHT22;51730;56.950;24.126;2022-11-15T07:58:38;6.10;99.90
65146;DHT22;51730;56.950;24.126;2022-11-15T08:01:06;6.10;99.90
65146;DHT22;51730;56.950;24.126;2022-11-15T08:03:33;6.10;99.90
65146;DHT22;51730;56.950;24.126;2022-11-15T08:06:01;6.20;99.90
65146;DHT22;51730;56.950;24.126;2022-11-15T08:08:28;6.20;99.90
65146;DHT22;51730;56.950;24.126;2022-11-15T08:10:57;6.20;99.90
65146;DHT22;51730;56.950;24.126;2022-11-15T08:13:24;6.20;99.90
65146;DHT22;51730;56.950;24.126;2022-11-15T08:15:51;6.30;99.90
65146;DHT22;51730;56.950;24.126;2022-11-15T08:18:24;6.40;99.90
65146;DHT22;51730;56.950;24.126;2022-11-15T08:20:50;6.30;99.90
65146;DHT22;51730;56.950;24.126;2022-11-15T08:23:17;6.30;99.90
65146;DHT22;51730;56.950;24.126;2022-11-15T08:25:44;6.40;99.90
65146;DHT22;51730;56.950;24.126;2022-11-15T08:28:11;6.30;99.90
65146;DHT22;51730;56.950;24.126;2022-11-15T08:30:40;6.40;99.90
65146;DHT22;51730;56.950;24.126;2022-11-15T08:33:13;6.40;99.90
65146;DHT22;51730;56.950;24.126;2022-11-15T08:35:41;6.40;99.90
65146;DHT22;51730;56.950;24.126;2022-11-15T08:38:09;6.40;99.90
65146;DHT22;51730;56.950;24.126;2022-11-15T08:40:36;6.50;99.90
65146;DHT22;51730;56.950;24.126;2022-11-15T08:43:03;6.60;99.90
65146;DHT22;51730;56.950;24.126;2022-11-15T08:45:31;6.70;99.90
65146;DHT22;51730;56.950;24.126;2022-11-15T08:47:58;6.70;99.90
65146;DHT22;51730;56.950;24.126;2022-11-15T08:50:27;6.70;99.90
65146;DHT22;51730;56.950;24.126;2022-11-15T08:52:53;6.70;99.90
65146;DHT22;51730;56.950;24.126;2022-11-15T08:55:20;6.70;99.90
65146;DHT22;51730;56.950;24.126;2022-11-15T08:57:50;6.70;99.90
65146;DHT22;51730;56.950;24.126;2022-11-15T09:00:17;6.70;99.90
65146;DHT22;51730;56.950;24.126;2022-11-15T09:02:46;6.80;99.90
65146;DHT22;51730;56.950;24.126;2022-11-15T09:05:13;6.80;99.90
65146;DHT22;51730;56.950;24.126;2022-11-15T09:07:42;6.80;99.90
65146;DHT22;51730;56.950;24.126;2022-11-15T09:10:09;6.80;99.90
65146;DHT22;51730;56.950;24.126;2022-11-15T09:12:36;6.80;99.90
65146;DHT22;51730;56.950;24.126;2022-11-15T09:15:04;6.80;99.90
65146;DHT22;51730;56.950;24.126;2022-11-15T09:17:31;6.90;99.90
65146;DHT22;51730;56.950;24.126;2022-11-15T09:19:58;6.90;99.90
65146;DHT22;51730;56.950;24.126;2022-11-15T09:22:26;6.90;99.90
65146;DHT22;51730;56.950;24.126;2022-11-15T09:24:53;7.00;99.90
65146;DHT22;51730;56.950;24.126;2022-11-15T09:27:20;7.00;99.90
65146;DHT22;51730;56.950;24.126;2022-11-15T09:29:47;7.10;99.90
65146;DHT22;51730;56.950;24.126;2022-11-15T09:32:14;7.10;99.90
65146;DHT22;51730;56.950;24.126;2022-11-15T09:34:41;7.10;99.90
65146;DHT22;51730;56.950;24.126;2022-11-15T09:37:07;7.10;99.90
65146;DHT22;51730;56.950;24.126;2022-11-15T09:39:34;7.10;99.90
65146;DHT22;51730;56.950;24.126;2022-11-15T09:49:43;7.20;99.90
65146;DHT22;51730;56.950;24.126;2022-11-15T09:52:10;7.30;99.90
65146;DHT22;51730;56.950;24.126;2022-11-15T09:54:39;7.30;99.90
65146;DHT22;51730;56.950;24.126;2022-11-15T10:00:25;7.40;99.90
65146;DHT22;51730;56.950;24.126;2022-11-15T10:03:26;7.30;99.90
65146;DHT22;51730;56.950;24.126;2022-11-15T10:05:56;7.40;99.90
65146;DHT22;51730;56.950;24.126;2022-11-15T10:11:17;7.60;99.90
65146;DHT22;51730;56.950;24.126;2022-11-15T10:14:13;7.70;99.90
65146;DHT22;51730;56.950;24.126;2022-11-15T10:17:08;7.70;99.90
65146;DHT22;51730;56.950;24.126;2022-11-15T10:19:39;7.80;99.90
65146;DHT22;51730;56.950;24.126;2022-11-15T10:22:56;7.90;99.90
65146;DHT22;51730;56.950;24.126;2022-11-15T10:25:39;7.90;99.90
65146;DHT22;51730;56.950;24.126;2022-11-15T10:28:22;8.00;99.90
65146;DHT22;51730;56.950;24.126;2022-11-15T10:30:55;8.00;99.90
65146;DHT22;51730;56.950;24.126;2022-11-15T10:33:37;8.10;99.90
65146;DHT22;51730;56.950;24.126;2022-11-15T10:38:58;8.40;99.90
65146;DHT22;51730;56.950;24.126;2022-11-15T10:46:35;8.40;99.90
65146;DHT22;51730;56.950;24.126;2022-11-15T10:49:19;8.30;99.90
65146;DHT22;51730;56.950;24.126;2022-11-15T10:54:24;8.40;99.90
65146;DHT22;51730;56.950;24.126;2022-11-15T10:56:55;8.40;99.90
65146;DHT22;51730;56.950;24.126;2022-11-15T10:59:27;8.50;99.90
65146;DHT22;51730;56.950;24.126;2022-11-15T11:01:55;8.50;99.90
65146;DHT22;51730;56.950;24.126;2022-11-15T11:04:22;8.50;99.90
65146;DHT22;51730;56.950;24.126;2022-11-15T11:06:49;8.50;99.90
65146;DHT22;51730;56.950;24.126;2022-11-15T11:09:38;8.50;99.90
65146;DHT22;51730;56.950;24.126;2022-11-15T11:12:10;8.60;99.90
65146;DHT22;51730;56.950;24.126;2022-11-15T11:14:38;8.60;99.90
65146;DHT22;51730;56.950;24.126;2022-11-15T11:17:42;8.70;99.90
65146;DHT22;51730;56.950;24.126;2022-11-15T11:31:38;9.60;99.90
65146;DHT22;51730;56.950;24.126;2022-11-15T11:34:19;9.40;99.90
65146;DHT22;51730;56.950;24.126;2022-11-15T11:37:03;9.50;99.90
65146;DHT22;51730;56.950;24.126;2022-11-15T11:43:23;9.30;99.90
65146;DHT22;51730;56.950;24.126;2022-11-15T11:46:25;9.20;99.90
65146;DHT22;51730;56.950;24.126;2022-11-15T11:49:09;9.20;99.90
65146;DHT22;51730;56.950;24.126;2022-11-15T11:51:41;9.20;99.90
65146;DHT22;51730;56.950;24.126;2022-11-15T11:57:03;9.30;99.90
65146;DHT22;51730;56.950;24.126;2022-11-15T12:02:28;9.30;99.90
65146;DHT22;51730;56.950;24.126;2022-11-15T12:05:18;9.20;99.90
65146;DHT22;51730;56.950;24.126;2022-11-15T12:07:48;9.10;99.90
65146;DHT22;51730;56.950;24.126;2022-11-15T12:10:28;9.10;99.90
65146;DHT22;51730;56.950;24.126;2022-11-15T12:13:11;9.20;99.90
65146;DHT22;51730;56.950;24.126;2022-11-15T12:15:53;9.10;99.90
65146;DHT22;51730;56.950;24.126;2022-11-15T12:18:23;9.10;99.90
65146;DHT22;51730;56.950;24.126;2022-11-15T12:20:57;9.10;99.90
65146;DHT22;51730;56.950;24.126;2022-11-15T12:23:29;8.90;99.90
65146;DHT22;51730;56.950;24.126;2022-11-15T12:26:06;9.00;99.90
65146;DHT22;51730;56.950;24.126;2022-11-15T12:28:45;8.90;99.90
65146;DHT22;51730;56.950;24.126;2022-11-15T12:31:38;9.40;99.90
65146;DHT22;51730;56.950;24.126;2022-11-15T12:36:50;9.00;99.90
65146;DHT22;51730;56.950;24.126;2022-11-15T12:39:18;9.00;99.90
65146;DHT22;51730;56.950;24.126;2022-11-15T12:59:58;8.40;99.90
65146;DHT22;51730;56.950;24.126;2022-11-15T13:17:43;7.80;99.90
65146;DHT22;51730;56.950;24.126;2022-11-15T13:22:43;7.70;99.90
65146;DHT22;51730;56.950;24.126;2022-11-15T13:35:48;7.60;99.90
65146;DHT22;51730;56.950;24.126;2022-11-15T13:38:37;7.50;99.90
65146;DHT22;51730;56.950;24.126;2022-11-15T13:43:43;7.40;99.90
65146;DHT22;51730;56.950;24.126;2022-11-15T13:46:15;7.40;99.90
65146;DHT22;51730;56.950;24.126;2022-11-15T13:48:44;7.40;99.90
65146;DHT22;51730;56.950;24.126;2022-11-15T13:57:02;7.40;99.90
65146;DHT22;51730;56.950;24.126;2022-11-15T13:59:54;7.50;99.90
65146;DHT22;51730;56.950;24.126;2022-11-15T14:02:27;7.50;99.90
65146;DHT22;51730;56.950;24.126;2022-11-15T14:07:26;7.50;99.90
65146;DHT22;51730;56.950;24.126;2022-11-15T14:09:54;7.50;99.90
65146;DHT22;51730;56.950;24.126;2022-11-15T14:14:51;7.60;99.90
65146;DHT22;51730;56.950;24.126;2022-11-15T14:19:57;7.50;99.90
65146;DHT22;51730;56.950;24.126;2022-11-15T14:22:26;7.40;99.90
65146;DHT22;51730;56.950;24.126;2022-11-15T14:25:21;7.30;99.90
65146;DHT22;51730;56.950;24.126;2022-11-15T14:30:45;7.30;99.90
65146;DHT22;51730;56.950;24.126;2022-11-15T14:35:52;7.30;99.90
65146;DHT22;51730;56.950;24.126;2022-11-15T14:38:19;7.30;99.90
65146;DHT22;51730;56.950;24.126;2022-11-15T14:40:46;7.30;99.90
65146;DHT22;51730;56.950;24.126;2022-11-15T14:43:14;7.30;99.90
65146;DHT22;51730;56.950;24.126;2022-11-15T14:45:41;7.30;99.90
65146;DHT22;51730;56.950;24.126;2022-11-15T14:48:08;7.20;99.90
65146;DHT22;51730;56.950;24.126;2022-11-15T14:50:35;7.20;99.90
65146;DHT22;51730;56.950;24.126;2022-11-15T14:53:03;7.20;99.90
65146;DHT22;51730;56.950;24.126;2022-11-15T14:55:32;7.20;99.90
65146;DHT22;51730;56.950;24.126;2022-11-15T14:58:03;7.10;99.90
65146;DHT22;51730;56.950;24.126;2022-11-15T15:00:31;7.10;99.90
65146;DHT22;51730;56.950;24.126;2022-11-15T15:03:01;7.10;99.90
65146;DHT22;51730;56.950;24.126;2022-11-15T15:07:59;7.10;99.90
65146;DHT22;51730;56.950;24.126;2022-11-15T15:10:31;7.10;99.90
65146;DHT22;51730;56.950;24.126;2022-11-15T15:13:20;7.20;99.90
65146;DHT22;51730;56.950;24.126;2022-11-15T15:15:47;7.20;99.90
65146;DHT22;51730;56.950;24.126;2022-11-15T15:18:15;7.20;99.90
65146;DHT22;51730;56.950;24.126;2022-11-15T15:20:43;7.20;99.90
65146;DHT22;51730;56.950;24.126;2022-11-15T15:23:20;7.20;99.90
65146;DHT22;51730;56.950;24.126;2022-11-15T15:25:49;7.20;99.90
65146;DHT22;51730;56.950;24.126;2022-11-15T15:28:16;7.20;99.90
65146;DHT22;51730;56.950;24.126;2022-11-15T15:30:43;7.20;99.90
65146;DHT22;51730;56.950;24.126;2022-11-15T15:33:10;7.10;99.90
65146;DHT22;51730;56.950;24.126;2022-11-15T15:35:37;7.10;99.90
65146;DHT22;51730;56.950;24.126;2022-11-15T15:38:05;7.00;99.90
65146;DHT22;51730;56.950;24.126;2022-11-15T15:40:33;6.90;99.90
65146;DHT22;51730;56.950;24.126;2022-11-15T15:43:00;6.90;99.90
65146;DHT22;51730;56.950;24.126;2022-11-15T15:45:27;6.80;99.90
65146;DHT22;51730;56.950;24.126;2022-11-15T15:47:54;6.80;99.90
65146;DHT22;51730;56.950;24.126;2022-11-15T15:52:56;6.80;99.90
65146;DHT22;51730;56.950;24.126;2022-11-15T15:55:24;6.70;99.90
65146;DHT22;51730;56.950;24.126;2022-11-15T15:57:51;6.80;99.90
65146;DHT22;51730;56.950;24.126;2022-11-15T16:00:19;6.80;99.90
65146;DHT22;51730;56.950;24.126;2022-11-15T16:02:46;6.80;99.90
65146;DHT22;51730;56.950;24.126;2022-11-15T16:05:14;6.80;99.90
65146;DHT22;51730;56.950;24.126;2022-11-15T16:07:41;6.80;99.90
65146;DHT22;51730;56.950;24.126;2022-11-15T16:12:47;6.90;99.90
65146;DHT22;51730;56.950;24.126;2022-11-15T16:15:14;7.00;99.90
65146;DHT22;51730;56.950;24.126;2022-11-15T16:17:47;7.00;99.90
65146;DHT22;51730;56.950;24.126;2022-11-15T16:22:49;6.90;99.90
65146;DHT22;51730;56.950;24.126;2022-11-15T16:25:16;6.70;99.90
65146;DHT22;51730;56.950;24.126;2022-11-15T16:27:43;6.60;99.90
65146;DHT22;51730;56.950;24.126;2022-11-15T16:30:15;6.30;99.90
65146;DHT22;51730;56.950;24.126;2022-11-15T16:32:43;6.30;99.90
65146;DHT22;51730;56.950;24.126;2022-11-15T16:35:16;6.30;99.90
65146;DHT22;51730;56.950;24.126;2022-11-15T16:37:43;6.10;99.90
65146;DHT22;51730;56.950;24.126;2022-11-15T16:40:32;6.10;99.90
65146;DHT22;51730;56.950;24.126;2022-11-15T16:43:00;6.10;99.90
65146;DHT22;51730;56.950;24.126;2022-11-15T16:45:28;6.00;99.90
65146;DHT22;51730;56.950;24.126;2022-11-15T16:47:56;6.00;99.90
65146;DHT22;51730;56.950;24.126;2022-11-15T16:50:28;5.90;99.90
65146;DHT22;51730;56.950;24.126;2022-11-15T16:52:57;5.80;99.90
65146;DHT22;51730;56.950;24.126;2022-11-15T16:55:28;5.80;99.90
65146;DHT22;51730;56.950;24.126;2022-11-15T16:57:56;5.70;99.90
65146;DHT22;51730;56.950;24.126;2022-11-15T17:00:24;5.50;99.90
65146;DHT22;51730;56.950;24.126;2022-11-15T17:02:52;5.40;99.90
65146;DHT22;51730;56.950;24.126;2022-11-15T17:05:21;5.30;99.90
65146;DHT22;51730;56.950;24.126;2022-11-15T17:07:50;5.30;99.90
65146;DHT22;51730;56.950;24.126;2022-11-15T17:10:23;5.40;99.90
65146;DHT22;51730;56.950;24.126;2022-11-15T17:12:51;5.40;99.90
65146;DHT22;51730;56.950;24.126;2022-11-15T17:15:18;5.30;99.90
65146;DHT22;51730;56.950;24.126;2022-11-15T17:17:53;5.20;99.90
65146;DHT22;51730;56.950;24.126;2022-11-15T17:20:22;5.10;99.90
65146;DHT22;51730;56.950;24.126;2022-11-15T17:22:49;5.10;99.90
65146;DHT22;51730;56.950;24.126;2022-11-15T17:25:17;5.10;99.90
65146;DHT22;51730;56.950;24.126;2022-11-15T17:27:43;5.20;99.90
65146;DHT22;51730;56.950;24.126;2022-11-15T17:30:14;5.20;99.90
65146;DHT22;51730;56.950;24.126;2022-11-15T17:32:42;5.00;99.90
65146;DHT22;51730;56.950;24.126;2022-11-15T17:35:10;5.10;99.90
65146;DHT22;51730;56.950;24.126;2022-11-15T17:37:41;5.10;99.90
65146;DHT22;51730;56.950;24.126;2022-11-15T17:40:08;5.10;99.90
65146;DHT22;51730;56.950;24.126;2022-11-15T17:42:35;5.10;99.90
65146;DHT22;51730;56.950;24.126;2022-11-15T17:45:03;5.10;99.90
65146;DHT22;51730;56.950;24.126;2022-11-15T17:47:35;5.10;99.90
65146;DHT22;51730;56.950;24.126;2022-11-15T17:50:03;5.10;99.90
65146;DHT22;51730;56.950;24.126;2022-11-15T17:52:30;5.00;99.90
65146;DHT22;51730;56.950;24.126;2022-11-15T17:54:57;4.90;99.90
65146;DHT22;51730;56.950;24.126;2022-11-15T17:57:23;5.00;99.90
65146;DHT22;51730;56.950;24.126;2022-11-15T17:59:50;5.00;99.90
65146;DHT22;51730;56.950;24.126;2022-11-15T18:02:17;5.00;99.90
65146;DHT22;51730;56.950;24.126;2022-11-15T18:04:45;4.90;99.90
65146;DHT22;51730;56.950;24.126;2022-11-15T18:07:11;4.80;99.90
65146;DHT22;51730;56.950;24.126;2022-11-15T18:09:39;4.90;99.90
65146;DHT22;51730;56.950;24.126;2022-11-15T18:12:10;5.00;99.90
65146;DHT22;51730;56.950;24.126;2022-11-15T18:14:37;5.10;99.90
65146;DHT22;51730;56.950;24.126;2022-11-15T18:17:05;5.00;99.90
65146;DHT22;51730;56.950;24.126;2022-11-15T18:19:32;5.00;99.90
65146;DHT22;51730;56.950;24.126;2022-11-15T18:21:59;4.90;99.90
65146;DHT22;51730;56.950;24.126;2022-11-15T18:26:56;4.80;99.90
65146;DHT22;51730;56.950;24.126;2022-11-15T18:29:23;4.90;99.90
65146;DHT22;51730;56.950;24.126;2022-11-15T18:31:50;5.00;99.90